Time,TemperatureF,DewpointF,PressureIn,WindDirection,WindDirectionDegrees,WindSpeedMPH,WindSpeedGustMPH,Humidity,HourlyPrecipIn,Conditions,Clouds,dailyrainin,SoftwareType,DateUTC
2013-04-11 00:00:00,65.7,61.4,30.03,North,0,0.0,0.0,86,0.00,CLR,FEW,0.00,WeatherDisplay:10.37,2013-04-11 04:00:00,
2013-04-11 00:01:00,65.7,61.4,30.03,North,0,0.0,0.0,86,0.00,CLR,FEW,0.00,WeatherDisplay:10.37,2013-04-11 04:01:00,
2013-04-11 00:02:00,65.7,61.4,30.03,North,0,0.0,0.0,86,0.00,CLR,FEW,0.00,WeatherDisplay:10.37,2013-04-11 04:02:00,
2013-04-11 00:06:00,65.7,61.4,30.03,North,0,0.0,0.0,86,0.00,CLR,FEW,0.00,WeatherDisplay:10.37,2013-04-11 04:06:00,
2013-04-11 00:11:00,65.5,60.8,30.03,North,0,0.0,0.0,85,0.00,CLR,FEW,0.00,WeatherDisplay:10.37,2013-04-11 04:11:00,
2013-04-11 00:16:00,65.3,61.0,30.00,North,0,0.0,0.0,86,0.00,CLR,FEW,0.00,WeatherDisplay:10.37,2013-04-11 04:16:00,
2013-04-11 00:21:00,65.1,60.8,30.00,North,0,0.0,0.0,86,0.00,CLR,FEW,0.00,WeatherDisplay:10.37,2013-04-11 04:21:00,
2013-04-11 00:26:00,65.1,60.8,30.00,North,0,0.0,0.0,86,0.00,CLR,FEW,0.00,WeatherDisplay:10.37,2013-04-11 04:26:00,
2013-04-11 00:32:00,64.8,60.5,30.03,North,0,0.0,0.0,86,0.00,CLR,FEW,0.00,WeatherDisplay:10.37,2013-04-11 04:32:00,
2013-04-11 00:37:00,64.6,60.3,30.03,North,0,0.0,0.0,86,0.00,CLR,FEW,0.00,WeatherDisplay:10.37,2013-04-11 04:37:00,
2013-04-11 00:42:00,64.6,60.3,30.03,North,0,0.0,0.0,86,0.00,CLR,FEW,0.00,WeatherDisplay:10.37,2013-04-11 04:42:00,
2013-04-11 00:47:00,64.4,60.1,30.00,North,0,0.0,0.0,86,0.00,CLR,FEW,0.00,WeatherDisplay:10.37,2013-04-11 04:47:00,
2013-04-11 00:52:00,64.4,60.1,30.00,North,0,0.0,0.0,86,0.00,CLR,FEW,0.00,WeatherDisplay:10.37,2013-04-11 04:52:00,
2013-04-11 00:57:00,64.2,60.3,30.00,North,0,0.0,0.0,87,0.00,CLR,FEW,0.00,WeatherDisplay:10.37,2013-04-11 04:57:00,
2013-04-11 01:02:00,64.4,60.4,30.00,North,0,0.0,0.0,87,0.00,CLR,FEW,0.00,WeatherDisplay:10.37,2013-04-11 05:02:00,
2013-04-11 01:07:00,64.4,60.4,30.00,North,0,0.0,0.0,87,0.00,CLR,FEW,0.00,WeatherDisplay:10.37,2013-04-11 05:07:00,
2013-04-11 01:13:00,64.2,60.3,30.00,North,0,0.0,0.0,87,0.00,CLR,FEW,0.00,WeatherDisplay:10.37,2013-04-11 05:13:00,
2013-04-11 01:18:00,64.2,60.3,30.00,North,0,0.0,0.0,87,0.00,CLR,FEW,0.00,WeatherDisplay:10.37,2013-04-11 05:18:00,
2013-04-11 01:23:00,64.0,60.1,30.00,North,0,0.0,0.0,87,0.00,CLR,FEW,0.00,WeatherDisplay:10.37,2013-04-11 05:23:00,
2013-04-11 01:28:00,63.9,59.9,30.00,North,0,0.0,0.0,87,0.00,CLR,FEW,0.00,WeatherDisplay:10.37,2013-04-11 05:28:00,
2013-04-11 01:33:00,63.7,59.7,30.00,North,0,0.0,0.0,87,0.00,CLR,FEW,0.00,WeatherDisplay:10.37,2013-04-11 05:33:00,
2013-04-11 01:38:00,63.7,60.1,30.00,North,0,0.0,0.0,88,0.00,CLR,FEW,0.00,WeatherDisplay:10.37,2013-04-11 05:38:00,
2013-04-11 01:43:00,63.7,60.1,30.00,North,0,0.0,0.0,88,0.00,CLR,FEW,0.00,WeatherDisplay:10.37,2013-04-11 05:43:00,
2013-04-11 01:48:00,63.7,60.1,30.00,North,0,0.0,0.0,88,0.00,CLR,FEW,0.00,WeatherDisplay:10.37,2013-04-11 05:48:00,
2013-04-11 01:53:00,63.9,60.6,30.00,North,0,0.0,0.0,89,0.00,CLR,FEW,0.00,WeatherDisplay:10.37,2013-04-11 05:53:00,
2013-04-11 01:58:00,63.9,60.6,30.00,North,0,0.0,0.0,89,0.00,CLR,FEW,0.00,WeatherDisplay:10.37,2013-04-11 05:58:00,
2013-04-11 02:03:00,63.9,60.6,30.00,North,0,0.0,0.0,89,0.00,CLR,FEW,0.00,WeatherDisplay:10.37,2013-04-11 06:03:00,
2013-04-11 02:08:00,63.9,60.6,30.00,North,0,0.0,0.0,89,0.00,CLR,FEW,0.00,WeatherDisplay:10.37,2013-04-11 06:08:00,
2013-04-11 02:13:00,63.9,60.6,30.00,North,0,0.0,0.0,89,0.00,CLR,FEW,0.00,WeatherDisplay:10.37,2013-04-11 06:13:00,
2013-04-11 02:18:00,63.9,60.9,30.00,North,0,0.0,0.0,90,0.00,CLR,FEW,0.00,WeatherDisplay:10.37,2013-04-11 06:18:00,
2013-04-11 02:23:00,63.7,60.7,30.00,North,0,0.0,0.0,90,0.00,CLR,FEW,0.00,WeatherDisplay:10.37,2013-04-11 06:23:00,
2013-04-11 02:28:00,63.7,60.7,30.00,North,0,0.0,0.0,90,0.00,CLR,FEW,0.00,WeatherDisplay:10.37,2013-04-11 06:28:00,
2013-04-11 02:33:00,63.5,60.5,30.00,North,0,0.0,0.0,90,0.00,CLR,FEW,0.00,WeatherDisplay:10.37,2013-04-11 06:33:00,
2013-04-11 02:38:00,63.5,60.5,30.00,North,0,0.0,0.0,90,0.00,CLR,FEW,0.00,WeatherDisplay:10.37,2013-04-11 06:38:00,
2013-04-11 02:43:00,63.7,60.7,30.00,North,0,0.0,0.0,90,0.00,CLR,FEW,0.00,WeatherDisplay:10.37,2013-04-11 06:43:00,
2013-04-11 02:48:00,63.5,60.5,30.00,North,0,0.0,0.0,90,0.00,CLR,FEW,0.00,WeatherDisplay:10.37,2013-04-11 06:48:00,
2013-04-11 02:53:00,63.5,60.8,30.00,North,0,0.0,0.0,91,0.00,CLR,FEW,0.00,WeatherDisplay:10.37,2013-04-11 06:53:00,
2013-04-11 02:58:00,63.7,61.0,30.00,North,0,0.0,0.0,91,0.00,CLR,FEW,0.00,WeatherDisplay:10.37,2013-04-11 06:58:00,
2013-04-11 03:03:00,63.7,61.0,30.00,North,0,0.0,0.0,91,0.00,CLR,FEW,0.00,WeatherDisplay:10.37,2013-04-11 07:03:00,
2013-04-11 03:08:00,63.7,61.0,30.00,North,0,0.0,0.0,91,0.00,CLR,FEW,0.00,WeatherDisplay:10.37,2013-04-11 07:08:00,
2013-04-11 03:13:00,63.7,61.0,30.00,North,0,0.0,0.0,91,0.00,CLR,FEW,0.00,WeatherDisplay:10.37,2013-04-11 07:13:00,
2013-04-11 03:18:00,63.9,61.2,30.00,North,0,0.0,0.0,91,0.00,CLR,FEW,0.00,WeatherDisplay:10.37,2013-04-11 07:18:00,
2013-04-11 03:23:00,63.9,61.2,30.00,North,0,0.0,0.0,91,0.00,CLR,FEW,0.00,WeatherDisplay:10.37,2013-04-11 07:23:00,
2013-04-11 03:28:00,63.9,61.2,30.00,North,0,0.0,0.0,91,0.00,CLR,FEW,0.00,WeatherDisplay:10.37,2013-04-11 07:28:00,
2013-04-11 03:33:00,63.7,61.3,30.00,North,0,0.0,0.0,92,0.00,CLR,FEW,0.00,WeatherDisplay:10.37,2013-04-11 07:33:00,
2013-04-11 03:38:00,63.7,61.3,30.00,North,0,0.0,0.0,92,0.00,CLR,FEW,0.00,WeatherDisplay:10.37,2013-04-11 07:38:00,
2013-04-11 03:43:00,63.7,61.3,30.00,North,0,0.0,0.0,92,0.00,CLR,FEW,0.00,WeatherDisplay:10.37,2013-04-11 07:43:00,
2013-04-11 03:48:00,63.7,61.3,30.00,North,0,0.0,0.0,92,0.00,CLR,FEW,0.00,WeatherDisplay:10.37,2013-04-11 07:48:00,
2013-04-11 03:53:00,63.5,61.1,30.00,North,0,0.0,0.0,92,0.00,CLR,FEW,0.00,WeatherDisplay:10.37,2013-04-11 07:53:00,
2013-04-11 03:58:00,63.5,61.1,29.97,North,0,0.0,0.0,92,0.00,CLR,FEW,0.00,WeatherDisplay:10.37,2013-04-11 07:58:00,
2013-04-11 04:03:00,63.5,61.1,29.97,North,0,0.0,0.0,92,0.00,CLR,FEW,0.00,WeatherDisplay:10.37,2013-04-11 08:03:00,
2013-04-11 04:08:00,63.5,61.1,29.97,North,0,0.0,0.0,92,0.00,CLR,FEW,0.00,WeatherDisplay:10.37,2013-04-11 08:08:00,
2013-04-11 04:13:00,63.5,61.1,29.97,North,0,0.0,0.0,92,0.00,CLR,FEW,0.00,WeatherDisplay:10.37,2013-04-11 08:13:00,
2013-04-11 04:18:00,63.3,61.0,29.97,North,0,0.0,0.0,92,0.00,CLR,FEW,0.00,WeatherDisplay:10.37,2013-04-11 08:18:00,
2013-04-11 04:23:00,63.3,61.0,29.97,North,0,0.0,0.0,92,0.00,CLR,FEW,0.00,WeatherDisplay:10.37,2013-04-11 08:23:00,
2013-04-11 04:28:00,63.3,61.3,30.00,North,0,0.0,0.0,93,0.00,CLR,FEW,0.00,WeatherDisplay:10.37,2013-04-11 08:28:00,
2013-04-11 04:33:00,63.3,61.3,30.00,North,0,0.0,0.0,93,0.00,CLR,FEW,0.00,WeatherDisplay:10.37,2013-04-11 08:33:00,
2013-04-11 04:38:00,63.3,61.3,30.00,North,0,0.0,0.0,93,0.00,CLR,FEW,0.00,WeatherDisplay:10.37,2013-04-11 08:38:00,
2013-04-11 04:43:00,63.3,61.3,30.00,North,0,0.0,0.0,93,0.00,CLR,FEW,0.00,WeatherDisplay:10.37,2013-04-11 08:43:00,
2013-04-11 04:48:00,63.3,61.3,30.00,North,0,0.0,0.0,93,0.00,CLR,FEW,0.00,WeatherDisplay:10.37,2013-04-11 08:48:00,
2013-04-11 04:53:00,63.1,61.1,30.00,North,0,0.0,0.0,93,0.00,CLR,FEW,0.00,WeatherDisplay:10.37,2013-04-11 08:53:00,
2013-04-11 04:58:00,63.1,61.1,30.00,North,0,0.0,0.0,93,0.00,CLR,FEW,0.00,WeatherDisplay:10.37,2013-04-11 08:58:00,
2013-04-11 05:03:00,63.1,61.1,29.97,North,0,0.0,0.0,93,0.00,CLR,FEW,0.00,WeatherDisplay:10.37,2013-04-11 09:03:00,
2013-04-11 05:08:00,63.1,61.1,29.97,North,0,0.0,0.0,93,0.00,CLR,FEW,0.00,WeatherDisplay:10.37,2013-04-11 09:08:00,
2013-04-11 05:13:00,63.1,61.1,29.97,North,0,0.0,0.0,93,0.00,CLR,FEW,0.00,WeatherDisplay:10.37,2013-04-11 09:13:00,
2013-04-11 05:18:00,63.0,60.9,30.00,North,0,0.0,0.0,93,0.00,CLR,FEW,0.00,WeatherDisplay:10.37,2013-04-11 09:18:00,
2013-04-11 05:23:00,63.1,61.1,30.00,North,0,0.0,0.0,93,0.00,CLR,FEW,0.00,WeatherDisplay:10.37,2013-04-11 09:23:00,
2013-04-11 05:28:00,63.1,61.4,30.00,North,0,0.0,0.0,94,0.00,CLR,FEW,0.00,WeatherDisplay:10.37,2013-04-11 09:28:00,
2013-04-11 05:33:00,63.3,61.6,29.97,North,0,0.0,0.0,94,0.00,CLR,FEW,0.00,WeatherDisplay:10.37,2013-04-11 09:33:00,
2013-04-11 05:38:00,63.5,61.7,29.97,North,0,0.0,0.0,94,0.00,CLR,FEW,0.00,WeatherDisplay:10.37,2013-04-11 09:38:00,
2013-04-11 05:43:00,63.5,61.7,29.97,North,0,0.0,0.0,94,0.00,CLR,FEW,0.00,WeatherDisplay:10.37,2013-04-11 09:43:00,
2013-04-11 05:48:00,63.3,61.6,29.97,North,0,0.0,0.0,94,0.00,CLR,FEW,0.00,WeatherDisplay:10.37,2013-04-11 09:48:00,
2013-04-11 05:53:00,63.1,61.4,29.97,North,0,0.0,0.0,94,0.00,CLR,FEW,0.00,WeatherDisplay:10.37,2013-04-11 09:53:00,
2013-04-11 05:58:00,63.1,61.4,29.97,North,0,0.0,0.0,94,0.00,CLR,FEW,0.00,WeatherDisplay:10.37,2013-04-11 09:58:00,
2013-04-11 06:03:00,63.3,61.6,29.97,North,0,0.0,0.0,94,0.00,CLR,FEW,0.00,WeatherDisplay:10.37,2013-04-11 10:03:00,
2013-04-11 06:08:00,63.7,62.2,29.97,North,0,0.0,0.0,95,0.00,CLR,FEW,0.00,WeatherDisplay:10.37,2013-04-11 10:08:00,
2013-04-11 06:13:00,64.0,62.6,29.97,North,0,0.0,0.0,95,0.00,CLR,FEW,0.00,WeatherDisplay:10.37,2013-04-11 10:13:00,
2013-04-11 06:18:00,64.2,62.8,29.97,North,0,0.0,0.0,95,0.00,CLR,FEW,0.00,WeatherDisplay:10.37,2013-04-11 10:18:00,
2013-04-11 06:23:00,64.2,62.8,29.97,North,0,0.0,0.0,95,0.00,CLR,FEW,0.00,WeatherDisplay:10.37,2013-04-11 10:23:00,
2013-04-11 06:28:00,64.0,62.3,29.97,North,0,0.0,0.0,94,0.00,CLR,FEW,0.00,WeatherDisplay:10.37,2013-04-11 10:28:00,
2013-04-11 06:33:00,63.9,62.1,29.97,North,0,0.0,0.0,94,0.00,CLR,FEW,0.00,WeatherDisplay:10.37,2013-04-11 10:33:00,
2013-04-11 06:38:00,63.7,61.9,29.97,North,0,0.0,0.0,94,0.00,CLR,FEW,0.00,WeatherDisplay:10.37,2013-04-11 10:38:00,
2013-04-11 06:43:00,63.7,61.9,29.97,North,0,0.0,0.0,94,0.00,CLR,FEW,0.00,WeatherDisplay:10.37,2013-04-11 10:43:00,
2013-04-11 06:48:00,63.5,62.0,29.97,North,0,0.0,0.0,95,0.00,CLR,FEW,0.00,WeatherDisplay:10.37,2013-04-11 10:48:00,
2013-04-11 06:53:00,63.5,62.0,29.97,North,0,0.0,0.0,95,0.00,CLR,FEW,0.00,WeatherDisplay:10.37,2013-04-11 10:53:00,
2013-04-11 06:58:00,63.5,62.0,29.97,North,0,0.0,0.0,95,0.00,CLR,FEW,0.00,WeatherDisplay:10.37,2013-04-11 10:58:00,
2013-04-11 07:03:00,63.5,62.0,30.00,North,0,0.0,0.0,95,0.00,CLR,FEW,0.00,WeatherDisplay:10.37,2013-04-11 11:03:00,
2013-04-11 07:08:00,63.5,62.0,30.00,North,0,0.0,0.0,95,0.00,CLR,FEW,0.00,WeatherDisplay:10.37,2013-04-11 11:08:00,
2013-04-11 07:13:00,63.7,62.2,30.00,North,0,0.0,0.0,95,0.00,CLR,FEW,0.00,WeatherDisplay:10.37,2013-04-11 11:13:00,
2013-04-11 07:18:00,63.9,62.4,30.00,North,0,0.0,0.0,95,0.00,CLR,FEW,0.00,WeatherDisplay:10.37,2013-04-11 11:18:00,
2013-04-11 07:23:00,64.0,62.9,30.00,North,0,0.0,0.0,96,0.00,CLR,FEW,0.00,WeatherDisplay:10.37,2013-04-11 11:23:00,
2013-04-11 07:28:00,64.2,63.1,30.00,North,0,0.0,0.0,96,0.00,CLR,FEW,0.00,WeatherDisplay:10.37,2013-04-11 11:28:00,
2013-04-11 07:33:00,64.2,63.1,30.00,North,0,0.0,0.0,96,0.00,CLR,FEW,0.00,WeatherDisplay:10.37,2013-04-11 11:33:00,
2013-04-11 07:38:00,64.4,62.9,30.00,North,0,0.0,0.0,95,0.00,CLR,FEW,0.00,WeatherDisplay:10.37,2013-04-11 11:38:00,
2013-04-11 07:44:00,64.9,63.8,30.00,North,0,0.0,0.0,96,0.00,CLR,FEW,0.00,WeatherDisplay:10.37,2013-04-11 11:44:00,
2013-04-11 07:49:00,64.6,63.1,30.00,North,0,0.0,0.0,95,0.00,CLR,FEW,0.00,WeatherDisplay:10.37,2013-04-11 11:49:00,
2013-04-11 07:54:00,63.9,62.4,30.00,North,0,0.0,0.0,95,0.00,CLR,FEW,0.00,WeatherDisplay:10.37,2013-04-11 11:54:00,
2013-04-11 07:59:00,63.9,62.4,30.00,North,0,0.0,0.0,95,0.00,CLR,FEW,0.00,WeatherDisplay:10.37,2013-04-11 11:59:00,
2013-04-11 08:04:00,64.0,62.6,30.00,North,0,0.0,0.0,95,0.00,CLR,FEW,0.00,WeatherDisplay:10.37,2013-04-11 12:04:00,
2013-04-11 08:09:00,64.0,62.6,30.00,North,0,0.0,0.0,95,0.00,CLR,FEW,0.00,WeatherDisplay:10.37,2013-04-11 12:09:00,
2013-04-11 08:14:00,64.2,63.1,30.00,North,0,0.0,0.0,96,0.00,CLR,FEW,0.00,WeatherDisplay:10.37,2013-04-11 12:14:00,
2013-04-11 08:19:00,64.8,63.6,30.00,North,0,0.0,0.0,96,0.00,CLR,FEW,0.00,WeatherDisplay:10.37,2013-04-11 12:19:00,
2013-04-11 08:24:00,65.7,64.5,30.00,North,0,0.0,0.0,96,0.00,CLR,FEW,0.00,WeatherDisplay:10.37,2013-04-11 12:24:00,
2013-04-11 08:29:00,66.4,65.2,30.00,North,0,0.0,0.0,96,0.00,CLR,FEW,0.00,WeatherDisplay:10.37,2013-04-11 12:29:00,
2013-04-11 08:34:00,66.6,65.4,30.00,North,0,0.0,0.0,96,0.00,CLR,FEW,0.00,WeatherDisplay:10.37,2013-04-11 12:34:00,
2013-04-11 08:39:00,66.4,65.2,30.00,North,0,0.0,0.0,96,0.00,CLR,FEW,0.00,WeatherDisplay:10.37,2013-04-11 12:39:00,
2013-04-11 08:44:00,66.4,65.2,30.00,North,0,0.0,0.0,96,0.00,CLR,FEW,0.00,WeatherDisplay:10.37,2013-04-11 12:44:00,
2013-04-11 08:49:00,66.4,65.2,30.00,North,0,0.0,0.0,96,0.00,CLR,FEW,0.00,WeatherDisplay:10.37,2013-04-11 12:49:00,
2013-04-11 08:54:00,66.4,65.2,30.00,North,0,0.0,0.0,96,0.00,CLR,FEW,0.00,WeatherDisplay:10.37,2013-04-11 12:54:00,
2013-04-11 08:59:00,66.4,65.2,30.00,North,0,0.0,0.0,96,0.00,CLR,FEW,0.00,WeatherDisplay:10.37,2013-04-11 12:59:00,
2013-04-11 09:04:00,66.4,65.2,30.00,North,0,0.0,0.0,96,0.00,CLR,FEW,0.00,WeatherDisplay:10.37,2013-04-11 13:04:00,
2013-04-11 09:09:00,67.1,66.2,30.00,North,0,0.0,0.0,97,0.00,CLR,FEW,0.00,WeatherDisplay:10.37,2013-04-11 13:09:00,
2013-04-11 09:14:00,68.2,67.3,30.00,North,0,0.0,0.0,97,0.00,CLR,FEW,0.00,WeatherDisplay:10.37,2013-04-11 13:14:00,
2013-04-11 09:19:00,69.3,68.4,30.00,North,0,0.0,0.0,97,0.00,CLR,FEW,0.00,WeatherDisplay:10.37,2013-04-11 13:19:00,
2013-04-11 09:24:00,70.0,69.1,30.00,North,0,0.0,0.0,97,0.00,CLR,FEW,0.00,WeatherDisplay:10.37,2013-04-11 13:24:00,
2013-04-11 09:29:00,70.3,69.1,30.00,North,0,0.0,0.0,96,0.00,CLR,FEW,0.00,WeatherDisplay:10.37,2013-04-11 13:29:00,
2013-04-11 09:34:00,71.1,69.9,30.00,North,0,0.0,0.0,96,0.00,CLR,FEW,0.00,WeatherDisplay:10.37,2013-04-11 13:34:00,
2013-04-11 09:39:00,71.8,70.6,30.00,North,0,0.0,0.0,96,0.00,CLR,FEW,0.00,WeatherDisplay:10.37,2013-04-11 13:39:00,
2013-04-11 09:44:00,72.1,70.9,30.00,North,0,0.0,0.0,96,0.00,CLR,FEW,0.00,WeatherDisplay:10.37,2013-04-11 13:44:00,
2013-04-11 09:49:00,72.5,71.3,30.00,North,0,0.0,0.0,96,0.00,CLR,FEW,0.00,WeatherDisplay:10.37,2013-04-11 13:49:00,
2013-04-11 09:55:00,72.9,70.7,30.00,North,0,0.0,0.0,93,0.00,CLR,FEW,0.00,WeatherDisplay:10.37,2013-04-11 13:55:00,
2013-04-11 10:00:00,72.5,65.2,30.00,North,0,0.0,0.0,78,0.00,CLR,FEW,0.00,WeatherDisplay:10.37,2013-04-11 14:00:00,
2013-04-11 10:05:00,72.5,66.0,30.00,North,0,0.0,0.0,80,0.00,CLR,FEW,0.00,WeatherDisplay:10.37,2013-04-11 14:05:00,
2013-04-11 10:11:00,72.1,61.4,30.00,North,0,0.0,0.0,69,0.00,CLR,FEW,0.00,WeatherDisplay:10.37,2013-04-11 14:11:00,
2013-04-11 10:16:00,72.0,60.8,30.00,North,0,0.0,0.0,68,0.00,CLR,FEW,0.00,WeatherDisplay:10.37,2013-04-11 14:16:00,
2013-04-11 10:21:00,72.0,60.4,30.00,North,0,0.0,0.0,67,0.00,CLR,FEW,0.00,WeatherDisplay:10.37,2013-04-11 14:21:00,
2013-04-11 10:26:00,72.7,61.1,30.00,North,0,0.0,0.0,67,0.00,CLR,FEW,0.00,WeatherDisplay:10.37,2013-04-11 14:26:00,
2013-04-11 10:33:00,73.2,60.3,30.00,North,0,0.0,0.0,64,0.00,CLR,FEW,0.00,WeatherDisplay:10.37,2013-04-11 14:33:00,
2013-04-11 10:38:00,73.8,58.5,30.00,North,0,0.0,0.0,59,0.00,CLR,FEW,0.00,WeatherDisplay:10.37,2013-04-11 14:38:00,
2013-04-11 10:43:00,74.1,57.9,30.00,North,0,0.0,0.0,57,0.00,CLR,FEW,0.00,WeatherDisplay:10.37,2013-04-11 14:43:00,
2013-04-11 10:49:00,74.5,57.3,30.00,North,0,0.0,0.0,55,0.00,CLR,FEW,0.00,WeatherDisplay:10.37,2013-04-11 14:49:00,
2013-04-11 10:54:00,74.8,57.6,30.00,North,0,0.0,0.0,55,0.00,CLR,FEW,0.00,WeatherDisplay:10.37,2013-04-11 14:54:00,
2013-04-11 10:59:00,74.8,56.6,30.00,North,0,0.0,0.0,53,0.00,CLR,FEW,0.00,WeatherDisplay:10.37,2013-04-11 14:59:00,
2013-04-11 11:04:00,74.7,56.4,30.00,North,0,0.0,0.0,53,0.00,CLR,FEW,0.00,WeatherDisplay:10.37,2013-04-11 15:04:00,
2013-04-11 11:09:00,74.5,55.2,30.00,North,0,0.0,0.0,51,0.00,CLR,FEW,0.00,WeatherDisplay:10.37,2013-04-11 15:09:00,
2013-04-11 11:14:00,74.7,56.9,30.00,North,0,0.0,0.0,54,0.00,CLR,FEW,0.00,WeatherDisplay:10.37,2013-04-11 15:14:00,
2013-04-11 11:19:00,74.8,56.6,30.00,North,0,0.0,0.0,53,0.00,CLR,FEW,0.00,WeatherDisplay:10.37,2013-04-11 15:19:00,
2013-04-11 11:24:00,74.8,55.5,30.00,North,0,0.0,0.0,51,0.00,CLR,FEW,0.00,WeatherDisplay:10.37,2013-04-11 15:24:00,
2013-04-11 11:29:00,74.3,55.5,30.00,North,0,0.0,0.0,52,0.00,CLR,FEW,0.00,WeatherDisplay:10.37,2013-04-11 15:29:00,
2013-04-11 11:34:00,74.3,56.6,30.00,North,0,0.0,0.0,54,0.00,CLR,FEW,0.00,WeatherDisplay:10.37,2013-04-11 15:34:00,
2013-04-11 11:39:00,74.7,57.4,30.00,North,0,0.0,0.0,55,0.00,CLR,FEW,0.00,WeatherDisplay:10.37,2013-04-11 15:39:00,
2013-04-11 11:44:00,75.2,57.4,30.00,North,0,0.0,0.0,54,0.00,CLR,FEW,0.00,WeatherDisplay:10.37,2013-04-11 15:44:00,
2013-04-11 11:49:00,75.4,55.4,30.00,North,0,0.0,0.0,50,0.00,CLR,FEW,0.00,WeatherDisplay:10.37,2013-04-11 15:49:00,
2013-04-11 11:54:00,75.0,55.7,30.00,North,0,0.0,0.0,51,0.00,CLR,FEW,0.00,WeatherDisplay:10.37,2013-04-11 15:54:00,
2013-04-11 11:59:00,75.6,58.3,30.00,North,0,0.0,0.0,55,0.00,CLR,FEW,0.00,WeatherDisplay:10.37,2013-04-11 15:59:00,
2013-04-11 12:04:00,75.9,57.6,30.00,North,0,0.0,0.0,53,0.00,CLR,FEW,0.00,WeatherDisplay:10.37,2013-04-11 16:04:00,
2013-04-11 12:09:00,75.7,54.7,30.00,North,0,0.0,0.0,48,0.00,CLR,FEW,0.00,WeatherDisplay:10.37,2013-04-11 16:09:00,
2013-04-11 12:14:00,75.2,55.3,30.00,North,0,0.0,0.0,50,0.00,CLR,FEW,0.00,WeatherDisplay:10.37,2013-04-11 16:14:00,
2013-04-11 12:19:00,74.8,54.9,30.00,North,0,0.0,0.0,50,0.00,CLR,FEW,0.00,WeatherDisplay:10.37,2013-04-11 16:19:00,
2013-04-11 12:24:00,74.7,55.3,30.00,North,0,0.0,0.0,51,0.00,CLR,FEW,0.00,WeatherDisplay:10.37,2013-04-11 16:24:00,
2013-04-11 12:29:00,73.8,54.0,30.00,North,0,0.0,0.0,50,0.00,CLR,FEW,0.00,WeatherDisplay:10.37,2013-04-11 16:29:00,
2013-04-11 12:34:00,73.6,56.4,30.00,North,0,0.0,0.0,55,0.00,CLR,FEW,0.00,WeatherDisplay:10.37,2013-04-11 16:34:00,
2013-04-11 12:39:00,73.4,55.7,30.00,North,0,0.0,0.0,54,0.00,CLR,FEW,0.00,WeatherDisplay:10.37,2013-04-11 16:39:00,
2013-04-11 12:44:00,73.8,58.1,29.97,North,0,0.0,0.0,58,0.00,CLR,FEW,0.00,WeatherDisplay:10.37,2013-04-11 16:44:00,
2013-04-11 12:49:00,74.3,57.6,29.97,North,0,0.0,0.0,56,0.00,CLR,FEW,0.00,WeatherDisplay:10.37,2013-04-11 16:49:00,
2013-04-11 12:54:00,74.8,57.1,29.97,North,0,0.0,0.0,54,0.00,CLR,FEW,0.00,WeatherDisplay:10.37,2013-04-11 16:54:00,
2013-04-11 12:59:00,74.8,56.0,29.97,North,0,0.0,0.0,52,0.00,CLR,FEW,0.00,WeatherDisplay:10.37,2013-04-11 16:59:00,
2013-04-11 13:05:00,74.5,55.7,29.97,North,0,0.0,0.0,52,0.00,CLR,FEW,0.00,WeatherDisplay:10.37,2013-04-11 17:05:00,
2013-04-11 13:10:00,74.8,57.1,29.97,North,0,0.0,0.0,54,0.00,CLR,FEW,0.00,WeatherDisplay:10.37,2013-04-11 17:10:00,
2013-04-11 13:15:00,75.2,56.9,29.97,North,0,0.0,0.0,53,0.00,CLR,FEW,0.00,WeatherDisplay:10.37,2013-04-11 17:15:00,
2013-04-11 13:20:00,75.4,55.4,29.97,North,0,0.0,0.0,50,0.00,CLR,FEW,0.00,WeatherDisplay:10.37,2013-04-11 17:20:00,
2013-04-11 13:25:00,75.6,55.6,29.97,North,0,0.0,0.0,50,0.00,CLR,FEW,0.00,WeatherDisplay:10.37,2013-04-11 17:25:00,
2013-04-11 13:30:00,75.2,54.7,29.97,North,0,0.0,0.0,49,0.00,CLR,FEW,0.00,WeatherDisplay:10.37,2013-04-11 17:30:00,
2013-04-11 13:35:00,74.7,55.3,29.97,North,0,0.0,0.0,51,0.00,CLR,FEW,0.00,WeatherDisplay:10.37,2013-04-11 17:35:00,
2013-04-11 13:40:00,74.3,55.0,29.97,North,0,0.0,0.0,51,0.00,CLR,FEW,0.00,WeatherDisplay:10.37,2013-04-11 17:40:00,
2013-04-11 13:45:00,73.4,56.7,29.94,North,0,0.0,0.0,56,0.00,CLR,FEW,0.00,WeatherDisplay:10.37,2013-04-11 17:45:00,
2013-04-11 13:50:00,73.6,58.4,29.94,North,0,0.0,0.0,59,0.00,CLR,FEW,0.00,WeatherDisplay:10.37,2013-04-11 17:50:00,
2013-04-11 13:55:00,73.9,56.8,29.94,North,0,0.0,0.0,55,0.00,CLR,FEW,0.00,WeatherDisplay:10.37,2013-04-11 17:55:00,
2013-04-11 14:00:00,74.1,56.4,29.94,North,0,0.0,0.0,54,0.00,CLR,FEW,0.00,WeatherDisplay:10.37,2013-04-11 18:00:00,
2013-04-11 14:06:00,74.3,55.0,29.94,North,0,0.0,0.0,51,0.00,CLR,FEW,0.00,WeatherDisplay:10.37,2013-04-11 18:06:00,
2013-04-11 14:11:00,73.9,55.2,29.94,North,0,0.0,0.0,52,0.00,CLR,FEW,0.00,WeatherDisplay:10.37,2013-04-11 18:11:00,
2013-04-11 14:16:00,73.6,55.4,29.94,North,0,0.0,0.0,53,0.00,CLR,FEW,0.00,WeatherDisplay:10.37,2013-04-11 18:16:00,
2013-04-11 14:22:00,73.4,54.2,29.94,North,0,0.0,0.0,51,0.00,CLR,FEW,0.00,WeatherDisplay:10.37,2013-04-11 18:22:00,
2013-04-11 14:27:00,73.8,56.1,29.94,North,0,0.0,0.0,54,0.00,CLR,FEW,0.00,WeatherDisplay:10.37,2013-04-11 18:27:00,
2013-04-11 14:32:00,74.1,56.4,29.94,North,0,0.0,0.0,54,0.00,CLR,FEW,0.00,WeatherDisplay:10.37,2013-04-11 18:32:00,
2013-04-11 14:37:00,73.9,54.7,29.94,North,0,0.0,0.0,51,0.00,CLR,FEW,0.00,WeatherDisplay:10.37,2013-04-11 18:37:00,
2013-04-11 14:42:00,73.8,56.6,29.94,North,0,0.0,0.0,55,0.00,CLR,FEW,0.00,WeatherDisplay:10.37,2013-04-11 18:42:00,
2013-04-11 14:47:00,73.6,55.9,29.94,North,0,0.0,0.0,54,0.00,CLR,FEW,0.00,WeatherDisplay:10.37,2013-04-11 18:47:00,
2013-04-11 14:53:00,73.2,55.1,29.94,North,0,0.0,0.0,53,0.00,CLR,FEW,0.00,WeatherDisplay:10.37,2013-04-11 18:53:00,
2013-04-11 14:58:00,73.0,55.9,29.94,North,0,0.0,0.0,55,0.00,CLR,FEW,0.00,WeatherDisplay:10.37,2013-04-11 18:58:00,
2013-04-11 15:04:00,73.0,56.4,29.94,North,0,0.0,0.0,56,0.00,CLR,FEW,0.00,WeatherDisplay:10.37,2013-04-11 19:04:00,
2013-04-11 15:09:00,73.4,56.7,29.94,North,0,0.0,0.0,56,0.00,CLR,FEW,0.00,WeatherDisplay:10.37,2013-04-11 19:09:00,
2013-04-11 15:15:00,73.4,56.2,29.91,North,0,0.0,0.0,55,0.00,CLR,FEW,0.00,WeatherDisplay:10.37,2013-04-11 19:15:00,
2013-04-11 15:20:00,73.8,57.6,29.91,North,0,0.0,0.0,57,0.00,CLR,FEW,0.00,WeatherDisplay:10.37,2013-04-11 19:20:00,
2013-04-11 15:25:00,73.6,55.9,29.91,North,0,0.0,0.0,54,0.00,CLR,FEW,0.00,WeatherDisplay:10.37,2013-04-11 19:25:00,
2013-04-11 15:30:00,73.6,54.9,29.91,North,0,0.0,0.0,52,0.00,CLR,FEW,0.00,WeatherDisplay:10.37,2013-04-11 19:30:00,
2013-04-11 15:35:00,73.4,54.7,29.91,North,0,0.0,0.0,52,0.00,CLR,FEW,0.00,WeatherDisplay:10.37,2013-04-11 19:35:00,
2013-04-11 15:40:00,73.0,55.4,29.91,North,0,0.0,0.0,54,0.00,CLR,FEW,0.00,WeatherDisplay:10.37,2013-04-11 19:40:00,
2013-04-11 15:45:00,72.5,55.9,29.91,North,0,0.0,0.0,56,0.00,CLR,FEW,0.00,WeatherDisplay:10.37,2013-04-11 19:45:00,
2013-04-11 15:50:00,72.0,56.4,29.91,North,0,0.0,0.0,58,0.00,CLR,FEW,0.00,WeatherDisplay:10.37,2013-04-11 19:50:00,
2013-04-11 15:55:00,71.8,56.7,29.91,North,0,0.0,0.0,59,0.00,CLR,FEW,0.00,WeatherDisplay:10.37,2013-04-11 19:55:00,
2013-04-11 16:00:00,71.8,57.1,29.91,North,0,0.0,0.0,60,0.00,CLR,FEW,0.00,WeatherDisplay:10.37,2013-04-11 20:00:00,
2013-04-11 16:05:00,72.0,56.8,29.91,North,0,0.0,0.0,59,0.00,CLR,FEW,0.00,WeatherDisplay:10.37,2013-04-11 20:05:00,
2013-04-11 16:10:00,72.0,56.8,29.91,North,0,0.0,0.0,59,0.00,CLR,FEW,0.00,WeatherDisplay:10.37,2013-04-11 20:10:00,
2013-04-11 16:15:00,71.8,57.1,29.88,North,0,0.0,0.0,60,0.00,CLR,FEW,0.00,WeatherDisplay:10.37,2013-04-11 20:15:00,
2013-04-11 16:20:00,71.6,56.5,29.88,North,0,0.0,0.0,59,0.00,CLR,FEW,0.00,WeatherDisplay:10.37,2013-04-11 20:20:00,
2013-04-11 16:25:00,71.2,56.2,29.88,North,0,0.0,0.0,59,0.00,CLR,FEW,0.00,WeatherDisplay:10.37,2013-04-11 20:25:00,
2013-04-11 16:30:00,71.2,57.1,29.88,North,0,0.0,0.0,61,0.00,CLR,FEW,0.00,WeatherDisplay:10.37,2013-04-11 20:30:00,
2013-04-11 16:35:00,71.6,57.9,29.88,North,0,0.0,0.0,62,0.00,CLR,FEW,0.00,WeatherDisplay:10.37,2013-04-11 20:35:00,
2013-04-11 16:40:00,71.8,57.1,29.88,North,0,0.0,0.0,60,0.00,CLR,FEW,0.00,WeatherDisplay:10.37,2013-04-11 20:40:00,
2013-04-11 16:45:00,71.8,56.7,29.88,North,0,0.0,0.0,59,0.00,CLR,FEW,0.00,WeatherDisplay:10.37,2013-04-11 20:45:00,
2013-04-11 16:51:00,71.8,57.1,29.88,North,0,0.0,0.0,60,0.00,CLR,FEW,0.00,WeatherDisplay:10.37,2013-04-11 20:51:00,
2013-04-11 16:57:00,71.6,56.5,29.88,North,0,0.0,0.0,59,0.00,CLR,FEW,0.00,WeatherDisplay:10.37,2013-04-11 20:57:00,
2013-04-11 17:02:00,71.4,56.3,29.88,North,0,0.0,0.0,59,0.00,CLR,FEW,0.00,WeatherDisplay:10.37,2013-04-11 21:02:00,
2013-04-11 17:07:00,70.9,57.2,29.88,North,0,0.0,0.0,62,0.00,CLR,FEW,0.00,WeatherDisplay:10.37,2013-04-11 21:07:00,
2013-04-11 17:12:00,70.9,57.7,29.88,North,0,0.0,0.0,63,0.00,CLR,FEW,0.00,WeatherDisplay:10.37,2013-04-11 21:12:00,
2013-04-11 17:17:00,70.5,57.8,29.88,North,0,0.0,0.0,64,0.00,CLR,FEW,0.00,WeatherDisplay:10.37,2013-04-11 21:17:00,
2013-04-11 17:22:00,70.3,58.0,29.88,North,0,0.0,0.0,65,0.00,CLR,FEW,0.00,WeatherDisplay:10.37,2013-04-11 21:22:00,
2013-04-11 17:27:00,70.2,58.3,29.88,North,0,0.0,0.0,66,0.00,CLR,FEW,0.00,WeatherDisplay:10.37,2013-04-11 21:27:00,
2013-04-11 17:33:00,70.0,58.9,29.88,North,0,0.0,0.0,68,0.00,CLR,FEW,0.00,WeatherDisplay:10.37,2013-04-11 21:33:00,
2013-04-11 17:38:00,70.2,60.3,29.88,North,0,0.0,0.0,71,0.00,CLR,FEW,0.00,WeatherDisplay:10.37,2013-04-11 21:38:00,
2013-04-11 17:43:00,70.0,59.3,29.88,North,0,0.0,0.0,69,0.00,CLR,FEW,0.00,WeatherDisplay:10.37,2013-04-11 21:43:00,
2013-04-11 17:49:00,70.0,59.7,29.88,North,0,0.0,0.0,70,0.00,CLR,FEW,0.00,WeatherDisplay:10.37,2013-04-11 21:49:00,
2013-04-11 17:54:00,70.0,59.7,29.88,North,0,0.0,0.0,70,0.00,CLR,FEW,0.00,WeatherDisplay:10.37,2013-04-11 21:54:00,
2013-04-11 17:59:00,70.0,59.7,29.88,North,0,0.0,0.0,70,0.00,CLR,FEW,0.00,WeatherDisplay:10.37,2013-04-11 21:59:00,
2013-04-11 18:04:00,69.8,58.8,29.88,North,0,0.0,0.0,68,0.00,CLR,FEW,0.00,WeatherDisplay:10.37,2013-04-11 22:04:00,
2013-04-11 18:09:00,69.4,58.8,29.88,North,0,0.0,0.0,69,0.00,CLR,FEW,0.00,WeatherDisplay:10.37,2013-04-11 22:09:00,
2013-04-11 18:14:00,69.4,59.6,29.88,North,0,0.0,0.0,71,0.00,CLR,FEW,0.00,WeatherDisplay:10.37,2013-04-11 22:14:00,
2013-04-11 18:19:00,69.1,59.3,29.88,North,0,0.0,0.0,71,0.00,CLR,FEW,0.00,WeatherDisplay:10.37,2013-04-11 22:19:00,
2013-04-11 18:24:00,69.1,59.7,29.88,North,0,0.0,0.0,72,0.00,CLR,FEW,0.00,WeatherDisplay:10.37,2013-04-11 22:24:00,
2013-04-11 18:29:00,69.1,60.4,29.88,North,0,0.0,0.0,74,0.00,CLR,FEW,0.00,WeatherDisplay:10.37,2013-04-11 22:29:00,
2013-04-11 18:34:00,68.9,60.3,29.88,North,0,0.0,0.0,74,0.00,CLR,FEW,0.00,WeatherDisplay:10.37,2013-04-11 22:34:00,
2013-04-11 18:39:00,68.9,60.3,29.88,North,0,0.0,0.0,74,0.00,CLR,FEW,0.00,WeatherDisplay:10.37,2013-04-11 22:39:00,
2013-04-11 18:44:00,68.7,60.5,29.88,North,0,0.0,0.0,75,0.00,CLR,FEW,0.00,WeatherDisplay:10.37,2013-04-11 22:44:00,
2013-04-11 18:49:00,68.7,60.8,29.88,North,0,0.0,0.0,76,0.00,CLR,FEW,0.00,WeatherDisplay:10.37,2013-04-11 22:49:00,
2013-04-11 18:54:00,68.7,60.8,29.88,North,0,0.0,0.0,76,0.00,CLR,FEW,0.00,WeatherDisplay:10.37,2013-04-11 22:54:00,
2013-04-11 18:59:00,68.7,61.2,29.88,North,0,0.0,0.0,77,0.00,CLR,FEW,0.00,WeatherDisplay:10.37,2013-04-11 22:59:00,
2013-04-11 19:04:00,68.7,61.6,29.88,North,0,0.0,0.0,78,0.00,CLR,FEW,0.00,WeatherDisplay:10.37,2013-04-11 23:04:00,
2013-04-11 19:09:00,68.5,61.4,29.88,North,0,0.0,0.0,78,0.00,CLR,FEW,0.00,WeatherDisplay:10.37,2013-04-11 23:09:00,
2013-04-11 19:14:00,68.4,61.6,29.88,North,0,0.0,0.0,79,0.00,CLR,FEW,0.00,WeatherDisplay:10.37,2013-04-11 23:14:00,
2013-04-11 19:19:00,68.4,61.9,29.88,North,0,0.0,0.0,80,0.00,CLR,FEW,0.00,WeatherDisplay:10.37,2013-04-11 23:19:00,
2013-04-11 19:24:00,68.2,61.8,29.88,North,0,0.0,0.0,80,0.00,CLR,FEW,0.00,WeatherDisplay:10.37,2013-04-11 23:24:00,
2013-04-11 19:29:00,68.0,61.9,29.88,North,0,0.0,0.0,81,0.00,CLR,FEW,0.00,WeatherDisplay:10.37,2013-04-11 23:29:00,
2013-04-11 19:34:00,68.0,61.9,29.88,North,0,0.0,0.0,81,0.00,CLR,FEW,0.00,WeatherDisplay:10.37,2013-04-11 23:34:00,
2013-04-11 19:39:00,67.8,62.1,29.88,North,0,0.0,0.0,82,0.00,CLR,FEW,0.00,WeatherDisplay:10.37,2013-04-11 23:39:00,
2013-04-11 19:44:00,68.0,63.0,29.88,North,0,0.0,0.0,84,0.00,CLR,FEW,0.00,WeatherDisplay:10.37,2013-04-11 23:44:00,
2013-04-11 19:49:00,67.8,63.1,29.88,North,0,0.0,0.0,85,0.00,CLR,FEW,0.00,WeatherDisplay:10.37,2013-04-11 23:49:00,
2013-04-11 19:54:00,67.6,63.0,29.88,North,0,0.0,0.0,85,0.00,CLR,FEW,0.00,WeatherDisplay:10.37,2013-04-11 23:54:00,
2013-04-11 19:59:00,67.6,63.3,29.88,North,0,0.0,0.0,86,0.00,CLR,FEW,0.00,WeatherDisplay:10.37,2013-04-11 23:59:00,
2013-04-11 20:04:00,67.5,63.5,29.88,North,0,0.0,0.0,87,0.00,CLR,FEW,0.00,WeatherDisplay:10.37,2013-04-12 00:04:00,
2013-04-11 20:09:00,67.5,63.5,29.88,North,0,0.0,0.0,87,0.00,CLR,FEW,0.00,WeatherDisplay:10.37,2013-04-12 00:09:00,
2013-04-11 20:14:00,67.3,63.6,29.88,North,0,0.0,0.0,88,0.00,CLR,FEW,0.00,WeatherDisplay:10.37,2013-04-12 00:14:00,
2013-04-11 20:19:00,67.3,63.6,29.88,North,0,0.0,0.0,88,0.00,CLR,FEW,0.00,WeatherDisplay:10.37,2013-04-12 00:19:00,
2013-04-11 20:24:00,67.1,63.7,29.88,North,0,0.0,0.0,89,0.00,CLR,FEW,0.00,WeatherDisplay:10.37,2013-04-12 00:24:00,
2013-04-11 20:29:00,66.9,63.6,29.88,North,0,0.0,0.0,89,0.00,CLR,FEW,0.00,WeatherDisplay:10.37,2013-04-12 00:29:00,
2013-04-11 20:34:00,66.7,63.4,29.88,North,0,0.0,0.0,89,0.00,CLR,FEW,0.00,WeatherDisplay:10.37,2013-04-12 00:34:00,
2013-04-11 20:39:00,66.7,63.4,29.88,North,0,0.0,0.0,89,0.00,CLR,FEW,0.00,WeatherDisplay:10.37,2013-04-12 00:39:00,
2013-04-11 20:44:00,66.6,63.2,29.88,North,0,0.0,0.0,89,0.00,CLR,FEW,0.00,WeatherDisplay:10.37,2013-04-12 00:44:00,
2013-04-11 20:49:00,66.6,63.5,29.88,North,0,0.0,0.0,90,0.00,CLR,FEW,0.00,WeatherDisplay:10.37,2013-04-12 00:49:00,
2013-04-11 20:54:00,66.6,63.5,29.88,North,0,0.0,0.0,90,0.00,CLR,FEW,0.00,WeatherDisplay:10.37,2013-04-12 00:54:00,
2013-04-11 20:59:00,66.4,63.4,29.88,North,0,0.0,0.0,90,0.00,CLR,FEW,0.00,WeatherDisplay:10.37,2013-04-12 00:59:00,
2013-04-11 21:04:00,66.4,63.4,29.88,North,0,0.0,0.0,90,0.00,CLR,FEW,0.00,WeatherDisplay:10.37,2013-04-12 01:04:00,
2013-04-11 21:10:00,66.6,63.5,29.88,North,0,0.0,0.0,90,0.00,CLR,FEW,0.00,WeatherDisplay:10.37,2013-04-12 01:10:00,
2013-04-11 21:15:00,66.6,63.5,29.88,North,0,0.0,0.0,90,0.00,CLR,FEW,0.00,WeatherDisplay:10.37,2013-04-12 01:15:00,
2013-04-11 21:19:00,66.9,64.2,29.88,North,0,0.0,0.0,91,0.00,CLR,FEW,0.00,WeatherDisplay:10.37,2013-04-12 01:19:00,
2013-04-11 21:24:00,66.9,64.5,29.88,North,0,0.0,0.0,92,0.00,CLR,FEW,0.00,WeatherDisplay:10.37,2013-04-12 01:24:00,
2013-04-11 21:29:00,66.9,64.5,29.88,North,0,0.0,0.0,92,0.00,CLR,FEW,0.00,WeatherDisplay:10.37,2013-04-12 01:29:00,
2013-04-11 21:34:00,67.1,64.7,29.88,North,0,0.0,0.0,92,0.00,CLR,FEW,0.00,WeatherDisplay:10.37,2013-04-12 01:34:00,
2013-04-11 21:39:00,67.3,65.2,29.88,North,0,0.0,0.0,93,0.00,CLR,FEW,0.00,WeatherDisplay:10.37,2013-04-12 01:39:00,
2013-04-11 21:44:00,67.5,65.4,29.88,North,0,0.0,0.0,93,0.00,CLR,FEW,0.00,WeatherDisplay:10.37,2013-04-12 01:44:00,
2013-04-11 21:49:00,67.5,65.4,29.88,North,0,0.0,0.0,93,0.00,CLR,FEW,0.00,WeatherDisplay:10.37,2013-04-12 01:49:00,
2013-04-11 21:54:00,67.3,65.2,29.88,North,0,0.0,0.0,93,0.00,CLR,FEW,0.00,WeatherDisplay:10.37,2013-04-12 01:54:00,
2013-04-11 21:59:00,67.1,64.7,29.88,North,0,0.0,0.0,92,0.00,CLR,FEW,0.00,WeatherDisplay:10.37,2013-04-12 01:59:00,
2013-04-11 22:04:00,66.9,64.5,29.88,North,0,0.0,0.0,92,0.00,CLR,FEW,0.00,WeatherDisplay:10.37,2013-04-12 02:04:00,
2013-04-11 22:09:00,66.7,64.3,29.88,North,0,0.0,0.0,92,0.00,CLR,FEW,0.00,WeatherDisplay:10.37,2013-04-12 02:09:00,
2013-04-11 22:14:00,66.7,64.3,29.85,North,0,0.0,0.0,92,0.00,CLR,FEW,0.00,WeatherDisplay:10.37,2013-04-12 02:14:00,
2013-04-11 22:19:00,66.7,64.3,29.85,North,0,0.0,0.0,92,0.00,CLR,FEW,0.00,WeatherDisplay:10.37,2013-04-12 02:19:00,
2013-04-11 22:24:00,66.9,64.5,29.85,North,0,0.0,0.0,92,0.00,CLR,FEW,0.00,WeatherDisplay:10.37,2013-04-12 02:24:00,
2013-04-11 22:29:00,66.7,64.3,29.85,North,0,0.0,0.0,92,0.00,CLR,FEW,0.00,WeatherDisplay:10.37,2013-04-12 02:29:00,
2013-04-11 22:34:00,66.7,64.7,29.85,North,0,0.0,0.0,93,0.00,CLR,FEW,0.00,WeatherDisplay:10.37,2013-04-12 02:34:00,
2013-04-11 22:39:00,66.9,64.8,29.85,North,0,0.0,0.0,93,0.00,CLR,FEW,0.00,WeatherDisplay:10.37,2013-04-12 02:39:00,
2013-04-11 22:44:00,66.9,65.1,29.85,North,0,0.0,0.0,94,0.00,CLR,FEW,0.00,WeatherDisplay:10.37,2013-04-12 02:44:00,
2013-04-11 22:49:00,67.1,65.3,29.85,North,0,0.0,0.0,94,0.00,CLR,FEW,0.00,WeatherDisplay:10.37,2013-04-12 02:49:00,
2013-04-11 22:54:00,67.3,65.5,29.85,North,0,0.0,0.0,94,0.00,CLR,FEW,0.00,WeatherDisplay:10.37,2013-04-12 02:54:00,
2013-04-11 22:59:00,67.3,65.5,29.85,North,0,0.0,0.0,94,0.00,CLR,FEW,0.00,WeatherDisplay:10.37,2013-04-12 02:59:00,
2013-04-11 23:04:00,67.1,65.3,29.85,North,0,0.0,0.0,94,0.00,CLR,FEW,0.00,WeatherDisplay:10.37,2013-04-12 03:04:00,
2013-04-11 23:09:00,67.1,65.3,29.85,North,0,0.0,0.0,94,0.00,CLR,FEW,0.00,WeatherDisplay:10.37,2013-04-12 03:09:00,
2013-04-11 23:14:00,67.1,65.6,29.85,North,0,0.0,0.0,95,0.00,CLR,FEW,0.00,WeatherDisplay:10.37,2013-04-12 03:14:00,
2013-04-11 23:19:00,67.3,65.8,29.85,North,0,0.0,0.0,95,0.00,CLR,FEW,0.00,WeatherDisplay:10.37,2013-04-12 03:19:00,
2013-04-11 23:24:00,67.5,66.0,29.85,North,0,0.0,0.0,95,0.00,CLR,FEW,0.00,WeatherDisplay:10.37,2013-04-12 03:24:00,
2013-04-11 23:29:00,67.6,66.2,29.85,North,0,0.0,0.0,95,0.00,CLR,FEW,0.00,WeatherDisplay:10.37,2013-04-12 03:29:00,
2013-04-11 23:34:00,67.6,66.2,29.85,North,0,0.0,0.0,95,0.00,CLR,FEW,0.00,WeatherDisplay:10.37,2013-04-12 03:34:00,
2013-04-11 23:39:00,67.6,66.2,29.85,North,0,0.0,0.0,95,0.00,CLR,FEW,0.00,WeatherDisplay:10.37,2013-04-12 03:39:00,
2013-04-11 23:44:00,67.5,66.0,29.85,North,0,0.0,0.0,95,0.00,CLR,FEW,0.00,WeatherDisplay:10.37,2013-04-12 03:44:00,
2013-04-11 23:49:00,67.5,66.0,29.85,North,0,0.0,0.0,95,0.00,CLR,FEW,0.00,WeatherDisplay:10.37,2013-04-12 03:49:00,
2013-04-11 23:54:00,67.5,66.0,29.85,North,0,0.0,0.0,95,0.00,CLR,FEW,0.00,WeatherDisplay:10.37,2013-04-12 03:54:00,
2013-04-11 23:59:00,67.5,66.0,29.85,North,0,0.0,0.0,95,0.00,CLR,FEW,0.00,WeatherDisplay:10.37,2013-04-12 03:59:00,